Time;durP1;ratioP1;P1;durP2;ratioP2;P2;SDS_P1;SDS_P2;PMS_P1;PMS_P2;Temp;Humidity;BMP_temperature;BMP_pressure;BME280_temperature;BME280_humidity;BME280_pressure;Samples;Min_cycle;Max_cycle;Signal;HPM_P1;HPM_P2
2022/02/08 00:02:25;;;;;;;16.23;10.82;;;5.10;79.50;;;;;;5066007;28;20477;-59
2022/02/08 00:04:51;;;;;;;16.23;11.02;;;5.10;79.40;;;;;;5071405;28;20040;-60
2022/02/08 00:07:16;;;;;;;19.90;12.10;;;5.10;79.30;;;;;;5072805;28;20025;-60
2022/02/08 00:09:42;;;;;;;16.52;10.60;;;5.20;79.40;;;;;;5058514;28;20043;-60
2022/02/08 00:12:08;;;;;;;16.85;11.88;;;5.20;79.40;;;;;;5060161;28;20465;-59
2022/02/08 00:14:34;;;;;;;20.63;14.63;;;5.20;79.40;;;;;;5074859;28;20472;-60
2022/02/08 00:17:00;;;;;;;18.42;12.10;;;5.20;79.50;;;;;;5074885;28;20024;-60
2022/02/08 00:19:25;;;;;;;18.13;12.73;;;5.20;79.40;;;;;;5075223;28;20029;-60
2022/02/08 00:21:51;;;;;;;20.60;13.40;;;5.10;79.40;;;;;;5069393;28;20033;-60
2022/02/08 00:24:17;;;;;;;15.05;11.48;;;5.10;79.40;;;;;;5072586;28;20028;-60
2022/02/08 00:26:42;;;;;;;14.63;11.65;;;5.10;79.40;;;;;;5074737;28;20033;-60
2022/02/08 00:29:08;;;;;;;16.42;11.52;;;5.10;79.50;;;;;;5073106;28;20036;-60
2022/02/08 00:31:34;;;;;;;18.27;13.88;;;5.10;79.40;;;;;;5074207;28;20020;-60
2022/02/08 00:34:00;;;;;;;18.35;12.63;;;5.20;79.50;;;;;;5074316;28;20544;-60
2022/02/08 00:36:25;;;;;;;20.42;15.60;;;5.20;79.50;;;;;;5070107;28;20527;-60
2022/02/08 00:38:53;;;;;;;17.30;13.63;;;5.20;79.50;;;;;;5054493;28;20473;-60
2022/02/08 00:41:19;;;;;;;16.33;11.68;;;5.20;79.40;;;;;;5072082;28;20020;-60
2022/02/08 00:46:16;;;;;;;14.50;11.10;;;5.10;79.30;;;;;;5061781;28;20027;-60
2022/02/08 00:48:49;;;;;;;21.15;14.00;;;5.20;79.30;;;;;;5074447;28;20468;-60
2022/02/08 00:51:16;;;;;;;20.13;11.77;;;5.20;79.50;;;;;;5074310;28;20074;-60
2022/02/08 00:53:42;;;;;;;20.10;12.90;;;5.10;79.30;;;;;;5066038;28;20029;-60
2022/02/08 00:56:08;;;;;;;19.95;11.95;;;5.20;79.50;;;;;;5068807;28;20093;-60
2022/02/08 00:58:34;;;;;;;14.20;11.23;;;5.20;79.50;;;;;;5081638;28;20107;-60
2022/02/08 01:00:59;;;;;;;16.35;12.30;;;5.20;79.50;;;;;;5065917;28;20021;-60
2022/02/08 01:03:25;;;;;;;21.35;12.27;;;5.20;80.00;;;;;;5054288;28;20025;-60
2022/02/08 01:06:02;;;;;;;15.73;11.68;;;5.20;79.40;;;;;;5067834;28;20040;-60
2022/02/08 01:08:31;;;;;;;16.23;10.23;;;5.20;79.50;;;;;;5073845;28;20104;-60
2022/02/08 01:10:56;;;;;;;16.50;11.43;;;5.20;79.40;;;;;;5073738;28;20483;-60
2022/02/08 01:13:23;;;;;;;18.30;12.50;;;5.10;79.50;;;;;;5073691;28;20016;-60
2022/02/08 01:15:49;;;;;;;16.95;11.45;;;5.10;79.50;;;;;;5073682;28;20052;-60
2022/02/08 01:18:15;;;;;;;14.07;11.50;;;5.10;80.20;;;;;;5071836;28;20482;-60
2022/02/08 01:20:41;;;;;;;18.85;12.20;;;5.10;79.70;;;;;;5053606;28;20052;-60
2022/02/08 01:23:10;;;;;;;18.13;12.57;;;5.10;79.50;;;;;;5061533;28;20017;-60
2022/02/08 01:25:45;;;;;;;17.58;13.18;;;5.10;79.60;;;;;;5053642;28;20036;-60
2022/02/08 01:30:59;;;;;;;17.15;11.70;;;5.10;79.70;;;;;;5073497;28;20039;-60
2022/02/08 01:38:35;;;;;;;24.80;16.75;;;5.10;79.80;;;;;;5075660;28;20074;-60
2022/02/08 01:48:59;;;;;;;18.52;13.60;;;5.00;80.00;;;;;;5060017;28;20026;-60
2022/02/08 01:51:13;;;;;;;;;;;5.00;80.10;;;;;;5069285;28;20029;-60
2022/02/08 01:53:38;;;;;;;21.52;18.60;;;5.00;80.30;;;;;;5063226;28;19915;-60
2022/02/08 01:56:04;;;;;;;20.40;13.32;;;5.00;80.30;;;;;;5069405;28;20036;-60
2022/02/08 01:58:30;;;;;;;17.75;11.60;;;5.00;80.10;;;;;;5071103;28;20028;-60
2022/02/08 02:00:56;;;;;;;17.58;13.02;;;5.00;79.90;;;;;;5075001;28;20024;-60
2022/02/08 02:03:21;;;;;;;19.50;12.93;;;5.00;80.00;;;;;;5084460;28;20031;-60
2022/02/08 02:05:50;;;;;;;16.55;11.55;;;5.00;80.00;;;;;;5072696;28;20091;-60
2022/02/08 02:08:16;;;;;;;19.30;11.10;;;5.00;80.00;;;;;;5072599;28;20540;-60
2022/02/08 02:10:41;;;;;;;20.02;12.77;;;5.00;80.00;;;;;;5074047;28;20108;-60
2022/02/08 02:13:14;;;;;;;18.08;12.10;;;5.00;80.00;;;;;;5077253;28;20024;-60
2022/02/08 02:15:40;;;;;;;16.05;11.40;;;4.90;80.70;;;;;;5069695;28;20032;-60
2022/02/08 02:18:05;;;;;;;16.77;10.50;;;4.90;80.10;;;;;;5054782;28;20021;-60
2022/02/08 02:20:33;;;;;;;17.27;11.95;;;4.90;80.20;;;;;;5070020;28;20032;-60
2022/02/08 02:22:59;;;;;;;15.93;11.18;;;4.90;80.30;;;;;;5068645;28;20028;-60
2022/02/08 02:25:29;;;;;;;17.50;11.50;;;4.90;80.40;;;;;;5084093;28;20514;-60
2022/02/08 02:27:57;;;;;;;19.05;12.98;;;4.80;80.40;;;;;;5061628;28;20032;-60
2022/02/08 02:30:25;;;;;;;18.70;10.45;;;4.80;80.60;;;;;;5072105;28;20060;-60
2022/02/08 02:32:52;;;;;;;15.38;10.45;;;4.80;80.70;;;;;;5069525;28;20094;-60
2022/02/08 02:35:18;;;;;;;17.50;12.32;;;4.80;80.80;;;;;;5072151;28;20036;-60
2022/02/08 02:37:44;;;;;;;15.65;11.32;;;4.80;81.10;;;;;;5081269;28;20027;-60
2022/02/08 02:40:11;;;;;;;17.40;10.98;;;4.80;81.10;;;;;;5074318;28;20078;-59
2022/02/08 02:42:37;;;;;;;16.95;12.45;;;4.80;81.20;;;;;;5072158;28;20050;-60
2022/02/08 02:45:05;;;;;;;17.77;12.25;;;4.80;81.20;;;;;;5072291;28;20063;-60
2022/02/08 02:47:30;;;;;;;14.10;10.88;;;4.80;81.30;;;;;;5072336;28;20024;-60
2022/02/08 02:49:56;;;;;;;18.52;11.23;;;4.80;81.40;;;;;;5071474;28;20039;-60
2022/02/08 02:52:21;;;;;;;15.63;10.88;;;4.80;81.40;;;;;;5070672;28;20024;-60
2022/02/08 02:54:48;;;;;;;14.10;10.43;;;4.80;81.40;;;;;;5079485;28;20024;-60
2022/02/08 02:57:15;;;;;;;18.05;11.88;;;4.80;81.50;;;;;;5060165;28;20090;-59
2022/02/08 02:59:44;;;;;;;16.00;11.75;;;4.80;81.60;;;;;;5065824;28;20033;-60
2022/02/08 03:02:39;;;;;;;16.58;11.77;;;4.80;81.60;;;;;;5069351;28;20045;-60
2022/02/08 03:18:37;;;;;;;15.88;10.60;;;4.70;81.70;;;;;;5071894;28;20428;-60
2022/02/08 03:21:05;;;;;;;14.55;10.05;;;4.70;81.60;;;;;;5072024;28;20043;-60
2022/02/08 03:23:31;;;;;;;15.70;10.32;;;4.70;81.70;;;;;;5067168;28;20017;-60
2022/02/08 03:25:57;;;;;;;15.68;10.10;;;4.70;81.70;;;;;;5068684;28;20032;-60
2022/02/08 03:28:22;;;;;;;15.85;12.40;;;4.70;81.80;;;;;;5071635;28;20024;-60
2022/02/08 03:30:48;;;;;;;20.00;11.48;;;4.70;81.90;;;;;;5053944;28;20020;-60
2022/02/08 03:33:14;;;;;;;17.65;10.82;;;4.70;82.20;;;;;;5071822;28;20032;-59
2022/02/08 03:35:39;;;;;;;17.75;11.10;;;4.70;81.90;;;;;;5068864;28;20071;-60
2022/02/08 03:38:08;;;;;;;15.50;10.73;;;4.70;81.70;;;;;;5072255;28;20100;-60
2022/02/08 03:43:12;;;;;;;16.63;10.18;;;4.70;81.90;;;;;;5072114;28;20380;-59
2022/02/08 03:45:38;;;;;;;17.08;10.23;;;4.70;81.80;;;;;;5071972;28;20379;-60
2022/02/08 03:48:04;;;;;;;15.32;9.82;;;4.70;81.90;;;;;;5075322;28;20383;-60
2022/02/08 03:50:30;;;;;;;13.98;10.27;;;4.70;81.90;;;;;;5071527;28;20071;-60
2022/02/08 03:52:56;;;;;;;15.32;11.32;;;4.70;81.90;;;;;;5070750;28;20021;-60
2022/02/08 03:55:21;;;;;;;17.52;12.07;;;4.70;81.90;;;;;;5060968;28;20025;-60
2022/02/08 03:57:47;;;;;;;15.05;10.40;;;4.60;82.00;;;;;;5079389;28;20051;-60
2022/02/08 04:00:14;;;;;;;18.98;12.15;;;4.70;82.10;;;;;;5069824;28;20021;-60
2022/02/08 04:02:44;;;;;;;17.73;11.07;;;4.60;82.00;;;;;;5080814;28;20040;-59
2022/02/08 04:07:49;;;;;;;17.27;11.50;;;4.60;82.20;;;;;;5075276;28;20035;-60
2022/02/08 04:10:22;;;;;;;16.27;10.73;;;4.60;82.20;;;;;;5075238;28;20369;-60
2022/02/08 04:34:26;;;;;;;20.20;12.80;;;4.40;82.40;;;;;;5017760;28;20034;-60
2022/02/08 04:42:08;;;;;;;19.10;12.40;;;4.40;82.60;;;;;;5074794;28;20032;-60
2022/02/08 04:49:34;;;;;;;19.75;13.00;;;4.30;82.70;;;;;;5074605;28;20457;-60
2022/02/08 04:52:04;;;;;;;18.67;12.77;;;4.30;82.80;;;;;;5073950;28;20491;-60
2022/02/08 04:54:57;;;;;;;16.48;12.23;;;4.30;82.80;;;;;;5067176;28;20036;-60
2022/02/08 04:57:29;;;;;;;20.63;15.32;;;4.30;82.80;;;;;;5069152;28;20017;-60
2022/02/08 05:43:17;;;;;;;19.65;12.55;;;4.10;83.70;;;;;;5073384;28;20103;-60
2022/02/08 05:45:48;;;;;;;19.77;12.85;;;4.10;83.80;;;;;;5072701;28;20404;-60
2022/02/08 05:48:22;;;;;;;21.70;19.17;;;4.10;84.10;;;;;;5053325;28;20029;-60
2022/02/08 05:50:56;;;;;;;21.63;13.07;;;4.10;84.30;;;;;;5065408;28;20116;-60
2022/02/08 05:53:30;;;;;;;22.88;19.67;;;4.00;84.00;;;;;;5067219;28;20060;-60
2022/02/08 05:55:56;;;;;;;25.90;15.68;;;4.00;84.40;;;;;;5073309;28;20027;-60
2022/02/08 05:58:23;;;;;;;26.42;22.95;;;4.10;84.20;;;;;;5071906;28;20347;-60
2022/02/08 06:00:48;;;;;;;26.00;21.90;;;4.10;84.60;;;;;;5069493;28;20393;-59
2022/02/08 06:03:15;;;;;;;26.80;21.92;;;4.10;84.60;;;;;;5069462;28;20031;-60
2022/02/08 06:05:41;;;;;;;22.90;15.38;;;4.10;84.50;;;;;;5065504;28;20384;-60
2022/02/08 06:08:06;;;;;;;21.00;13.65;;;4.00;84.40;;;;;;5066255;28;20025;-60
2022/02/08 06:10:33;;;;;;;22.40;19.25;;;4.00;84.40;;;;;;5070048;28;20024;-59
2022/02/08 06:12:59;;;;;;;23.85;14.85;;;4.00;84.80;;;;;;5072602;28;20039;-60
2022/02/08 06:15:26;;;;;;;21.58;14.02;;;4.00;84.60;;;;;;5063111;28;20028;-60
2022/02/08 06:17:57;;;;;;;23.80;21.15;;;4.00;84.70;;;;;;5077108;28;20052;-60
2022/02/08 06:20:23;;;;;;;;;;;4.00;85.20;;;;;;5075410;28;20455;-59
2022/02/08 06:22:49;;;;;;;17.02;12.25;;;4.00;85.30;;;;;;5071053;28;19951;-60
2022/02/08 06:25:17;;;;;;;22.50;19.38;;;4.00;85.10;;;;;;5070345;28;20396;-60
2022/02/08 06:27:46;;;;;;;22.23;14.65;;;4.00;85.40;;;;;;5066815;28;20041;-60
2022/02/08 06:30:12;;;;;;;22.73;20.33;;;4.00;85.70;;;;;;5064549;28;20025;-59
2022/02/08 06:32:39;;;;;;;24.88;21.50;;;4.00;85.20;;;;;;5070229;28;20052;-59
2022/02/08 06:35:11;;;;;;;22.90;14.98;;;4.10;85.10;;;;;;5062137;28;20036;-60
2022/02/08 06:37:39;;;;;;;22.92;20.33;;;4.00;84.70;;;;;;5064886;28;20543;-60
2022/02/08 06:40:06;;;;;;;26.13;22.73;;;4.00;85.20;;;;;;5065219;28;20593;-60
2022/02/08 06:42:32;;;;;;;21.30;13.98;;;4.10;85.30;;;;;;5067172;28;20024;-61
2022/02/08 06:44:58;;;;;;;21.20;14.05;;;4.00;85.00;;;;;;5050379;28;20027;-59
2022/02/08 06:47:23;;;;;;;19.55;12.10;;;4.00;85.30;;;;;;5064787;28;20651;-59
2022/02/08 06:49:50;;;;;;;21.83;19.52;;;4.00;85.40;;;;;;5060898;28;20024;-60
2022/02/08 06:52:16;;;;;;;18.77;12.95;;;4.00;85.80;;;;;;5066937;28;20024;-60
2022/02/08 06:54:42;;;;;;;21.65;18.77;;;4.00;85.50;;;;;;5059018;28;20024;-60
2022/02/08 06:57:08;;;;;;;18.95;12.48;;;4.10;85.90;;;;;;5060671;28;20021;-59
2022/02/08 06:59:38;;;;;;;20.92;17.80;;;4.00;86.20;;;;;;5060861;28;20029;-60
2022/02/08 07:02:05;;;;;;;18.23;12.18;;;4.10;85.90;;;;;;5061862;28;20040;-60
2022/02/08 07:04:31;;;;;;;19.15;17.00;;;4.10;85.50;;;;;;5064300;28;20060;-60
2022/02/08 07:06:56;;;;;;;19.50;16.85;;;4.10;85.90;;;;;;5066654;28;20068;-60
2022/02/08 07:09:23;;;;;;;18.25;11.77;;;4.10;85.90;;;;;;5067485;28;20089;-60
2022/02/08 07:11:50;;;;;;;15.30;10.35;;;4.20;85.70;;;;;;5067894;28;20024;-60
2022/02/08 07:14:15;;;;;;;17.17;14.93;;;4.10;85.80;;;;;;5064211;28;20037;-60
2022/02/08 07:16:41;;;;;;;16.35;10.65;;;4.20;86.20;;;;;;5067797;28;20507;-60
2022/02/08 07:19:07;;;;;;;15.70;10.15;;;4.20;85.80;;;;;;5060139;28;20684;-60
2022/02/08 07:21:34;;;;;;;13.32;10.25;;;4.20;85.90;;;;;;5060873;28;20051;-60
2022/02/08 07:24:00;;;;;;;14.90;13.20;;;4.20;86.00;;;;;;5063376;28;20198;-59
2022/02/08 07:26:26;;;;;;;13.70;9.68;;;4.20;86.00;;;;;;5054726;28;20016;-60
2022/02/08 07:28:51;;;;;;;15.95;12.95;;;4.30;85.70;;;;;;5065194;28;20093;-60
2022/02/08 07:31:23;;;;;;;12.57;8.55;;;4.30;85.80;;;;;;5061443;28;20548;-60
2022/02/08 07:33:56;;;;;;;;;;;4.30;85.40;;;;;;5059701;28;20040;-60
2022/02/08 07:36:29;;;;;;;10.25;7.38;;;4.20;85.60;;;;;;5066746;28;19909;-60
2022/02/08 07:38:55;;;;;;;12.13;7.32;;;4.20;85.50;;;;;;5064343;28;20021;-60
2022/02/08 07:41:40;;;;;;;9.23;7.53;;;4.20;85.50;;;;;;5058867;28;20064;-60
2022/02/08 07:44:14;;;;;;;10.27;7.80;;;4.20;85.70;;;;;;5061463;28;20057;-60
2022/02/08 07:46:40;;;;;;;8.90;6.47;;;4.30;85.60;;;;;;5065131;28;20055;-60
2022/02/08 07:49:06;;;;;;;9.80;8.63;;;4.30;85.60;;;;;;5061439;28;20067;-60
2022/02/08 07:51:38;;;;;;;9.88;7.13;;;4.30;85.70;;;;;;5057789;28;20028;-60
2022/02/08 07:54:04;;;;;;;9.48;6.40;;;4.30;85.60;;;;;;5040364;28;20104;-60
2022/02/08 07:56:30;;;;;;;10.55;7.53;;;4.30;85.60;;;;;;5041633;28;20044;-60
2022/02/08 07:58:56;;;;;;;8.48;5.68;;;4.40;85.80;;;;;;5060157;28;20188;-60
2022/02/08 08:01:22;;;;;;;7.82;6.13;;;4.30;85.60;;;;;;5062755;28;20033;-60
2022/02/08 08:03:48;;;;;;;9.20;7.60;;;4.40;85.70;;;;;;5059392;28;20029;-60
2022/02/08 08:06:16;;;;;;;9.38;8.25;;;4.40;85.70;;;;;;5061452;28;20154;-59
2022/02/08 08:08:42;;;;;;;9.85;6.38;;;4.50;85.60;;;;;;5050774;28;20032;-60
2022/02/08 08:11:20;;;;;;;7.63;5.53;;;4.50;85.30;;;;;;5053644;28;20151;-60
2022/02/08 08:13:50;;;;;;;7.32;5.60;;;4.50;85.40;;;;;;5061520;28;20021;-60
2022/02/08 08:16:25;;;;;;;5.78;4.63;;;4.50;85.40;;;;;;5054742;28;20089;-59
2022/02/08 08:19:03;;;;;;;9.23;5.43;;;4.50;85.40;;;;;;5055337;28;20567;-60
2022/02/08 08:21:30;;;;;;;6.20;4.88;;;4.50;85.40;;;;;;5050161;28;20460;-60
2022/02/08 08:23:56;;;;;;;6.97;4.82;;;4.50;85.30;;;;;;5049274;28;20446;-60
2022/02/08 08:26:23;;;;;;;6.85;5.15;;;4.50;85.30;;;;;;5054818;28;20110;-60
2022/02/08 08:28:48;;;;;;;7.05;6.05;;;4.60;85.30;;;;;;5060762;28;20029;-60
2022/02/08 08:31:15;;;;;;;5.63;4.60;;;4.60;85.30;;;;;;5063575;28;20033;-60
2022/02/08 08:33:40;;;;;;;5.57;4.45;;;4.60;85.20;;;;;;5060277;28;20111;-60
2022/02/08 08:36:07;;;;;;;6.18;4.75;;;4.60;85.20;;;;;;5063218;28;20462;-60
2022/02/08 08:38:34;;;;;;;11.48;7.10;;;4.60;85.10;;;;;;5072237;28;20020;-60
2022/02/08 08:51:45;;;;;;;6.25;3.72;;;4.60;84.70;;;;;;5055359;28;20119;-60
2022/02/08 08:54:11;;;;;;;5.80;3.67;;;4.70;84.60;;;;;;5056036;28;21030;-60
2022/02/08 08:56:38;;;;;;;4.18;3.22;;;4.60;84.40;;;;;;5053289;28;20526;-59
2022/02/08 08:59:10;;;;;;;4.75;3.38;;;4.60;84.40;;;;;;5051081;28;20033;-60
2022/02/08 09:01:35;;;;;;;4.75;3.10;;;4.60;84.30;;;;;;5060592;28;20040;-60
2022/02/08 09:04:02;;;;;;;5.60;3.45;;;4.60;84.40;;;;;;5055194;28;20033;-60
2022/02/08 09:06:28;;;;;;;4.00;3.03;;;4.70;84.30;;;;;;5051632;28;20041;-60
2022/02/08 09:08:55;;;;;;;4.35;3.33;;;4.70;84.20;;;;;;5055141;28;20036;-60
2022/02/08 09:13:58;;;;;;;3.67;2.97;;;4.70;83.90;;;;;;5065172;28;20085;-60
2022/02/08 09:29:08;;;;;;;3.10;2.80;;;4.80;83.10;;;;;;5056123;28;20040;-60
2022/02/08 09:31:36;;;;;;;;;;;4.80;83.00;;;;;;5058248;28;20028;-60
2022/02/08 09:34:03;;;;;;;3.85;2.90;;;4.80;82.80;;;;;;5054159;28;19923;-60
2022/02/08 09:36:28;;;;;;;3.72;3.25;;;4.90;82.90;;;;;;5056095;28;20621;-60
2022/02/08 09:38:55;;;;;;;3.28;2.70;;;4.90;82.60;;;;;;5060418;28;20033;-60
2022/02/08 09:41:23;;;;;;;3.15;2.85;;;4.90;82.40;;;;;;5059816;28;20039;-60
2022/02/08 09:43:50;;;;;;;3.80;3.10;;;4.90;82.30;;;;;;5058602;28;20025;-60
2022/02/08 09:46:18;;;;;;;3.50;3.00;;;5.00;82.30;;;;;;5068760;28;20040;-60
2022/02/08 09:48:50;;;;;;;3.88;3.05;;;5.00;82.20;;;;;;5061696;28;20021;-60
2022/02/08 09:51:17;;;;;;;5.60;3.28;;;5.00;82.20;;;;;;5065901;28;20028;-60
2022/02/08 09:53:43;;;;;;;4.15;3.30;;;5.10;82.20;;;;;;5057986;28;20477;-60
2022/02/08 09:56:11;;;;;;;3.97;3.03;;;5.20;82.00;;;;;;5062042;28;20025;-60
2022/02/08 09:58:37;;;;;;;3.88;3.00;;;5.20;81.80;;;;;;5065727;28;20465;-62
2022/02/08 10:01:10;;;;;;;3.47;3.10;;;5.20;81.70;;;;;;5064720;28;20021;-60
2022/02/08 10:03:49;;;;;;;3.55;3.08;;;5.30;81.70;;;;;;5055293;28;20032;-60
2022/02/08 10:06:15;;;;;;;5.47;3.40;;;5.30;81.40;;;;;;5057772;28;20025;-60
2022/02/08 10:08:41;;;;;;;2.90;2.70;;;5.30;81.50;;;;;;5059656;28;20082;-60
2022/02/08 10:11:14;;;;;;;4.25;3.28;;;5.30;81.30;;;;;;5065494;28;20496;-60
2022/02/08 10:19:38;;;;;;;4.68;3.60;;;5.50;80.80;;;;;;5035953;28;20068;-60
2022/02/08 10:22:10;;;;;;;4.30;3.03;;;5.50;80.50;;;;;;5056560;28;20025;-60
2022/02/08 10:24:37;;;;;;;3.60;3.28;;;5.50;80.20;;;;;;5064977;28;20033;-60
2022/02/08 10:27:19;;;;;;;4.28;3.00;;;5.50;80.20;;;;;;5060700;28;20070;-60
2022/02/08 10:37:46;;;;;;;4.43;3.33;;;5.40;79.90;;;;;;5057338;28;19934;-60
2022/02/08 10:40:13;;;;;;;3.47;2.92;;;5.50;80.20;;;;;;5056094;28;20033;-59
2022/02/08 10:42:54;;;;;;;3.85;2.92;;;5.50;80.00;;;;;;5056092;28;20495;-60
2022/02/08 10:45:26;;;;;;;5.40;2.97;;;5.50;80.00;;;;;;5055194;28;20519;-60
2022/02/08 10:48:06;;;;;;;3.35;2.92;;;5.40;79.90;;;;;;5056592;28;20277;-60
2022/02/08 10:50:36;;;;;;;4.28;3.60;;;5.50;79.80;;;;;;5063112;28;20075;-60
2022/02/08 10:53:05;;;;;;;4.00;3.20;;;5.50;79.90;;;;;;5061235;28;20047;-60
2022/02/08 11:03:05;;;;;;;5.60;3.53;;;5.60;79.40;;;;;;5064944;28;20024;-60
2022/02/08 11:11:08;;;;;;;5.30;3.45;;;5.60;79.20;;;;;;5060417;28;20042;-60
2022/02/08 11:14:00;;;;;;;3.85;3.10;;;5.60;79.10;;;;;;5068321;28;20471;-60
2022/02/08 11:16:26;;;;;;;4.10;3.03;;;5.60;79.10;;;;;;5059509;28;20416;-60
2022/02/08 11:19:24;;;;;;;4.72;3.33;;;5.60;78.80;;;;;;5063637;28;20103;-60
2022/02/08 11:24:46;;;;;;;3.30;3.00;;;5.60;78.70;;;;;;5012709;28;20026;-60
2022/02/08 11:27:16;;;;;;;5.95;3.38;;;5.60;78.50;;;;;;5062957;28;20060;-60
2022/02/08 11:30:05;;;;;;;4.22;3.00;;;5.60;78.40;;;;;;5060286;28;20465;-60
2022/02/08 12:07:28;;;;;;;4.30;3.17;;;5.60;77.70;;;;;;5065798;28;20082;-60
2022/02/08 12:10:08;;;;;;;4.68;3.20;;;5.60;77.50;;;;;;5063684;28;20033;-60
2022/02/08 12:56:15;;;;;;;3.63;2.75;;;5.30;75.80;;;;;;5062858;28;20279;-59
2022/02/08 14:18:36;;;;;;;1.85;1.73;;;5.10;71.90;;;;;;5057430;28;20025;-60
2022/02/08 14:21:18;;;;;;;1.83;1.70;;;5.00;71.90;;;;;;5060156;28;20043;-60
2022/02/08 14:24:00;;;;;;;1.60;1.50;;;5.00;72.00;;;;;;5059601;28;20036;-60
2022/02/08 14:37:03;;;;;;;2.50;2.00;;;5.00;71.30;;;;;;5058591;28;20032;-60
2022/02/08 14:49:05;;;;;;;2.75;2.05;;;4.90;71.00;;;;;;5057932;28;20106;-60
2022/02/08 15:09:51;;;;;;;1.63;1.52;;;4.70;69.70;;;;;;5056872;28;20054;-60
2022/02/08 15:12:19;;;;;;;1.60;1.50;;;4.70;69.60;;;;;;5059401;28;20029;-60
2022/02/08 15:14:51;;;;;;;1.75;1.65;;;4.70;69.30;;;;;;5044085;28;20025;-60
2022/02/08 15:17:18;;;;;;;1.55;1.45;;;4.70;69.20;;;;;;5060140;28;20499;-60
2022/02/08 15:19:48;;;;;;;1.85;1.75;;;4.60;69.20;;;;;;5052823;28;20032;-60
2022/02/08 15:22:15;;;;;;;3.33;2.10;;;4.60;69.30;;;;;;5055966;28;20029;-59
2022/02/08 15:24:42;;;;;;;2.25;1.83;;;4.60;69.20;;;;;;5061329;28;20037;-59
2022/02/08 15:27:10;;;;;;;1.90;1.80;;;4.70;69.30;;;;;;5057690;28;20028;-60
2022/02/08 15:29:36;;;;;;;3.70;1.88;;;4.70;69.00;;;;;;5061082;28;20135;-60
2022/02/08 15:32:03;;;;;;;2.00;1.90;;;4.70;68.80;;;;;;5060165;28;20464;-59
2022/02/08 15:34:29;;;;;;;2.22;1.88;;;4.70;68.80;;;;;;5062086;28;20048;-60
2022/02/08 15:36:55;;;;;;;2.08;1.88;;;4.70;68.90;;;;;;5060999;28;20043;-60
2022/02/08 15:39:21;;;;;;;2.53;1.83;;;4.70;68.90;;;;;;5056876;28;20672;-60
2022/02/08 15:41:48;;;;;;;1.90;1.75;;;4.70;69.20;;;;;;5055120;28;20070;-59
2022/02/08 15:44:22;;;;;;;2.03;1.92;;;4.70;69.10;;;;;;5057949;28;20111;-60
2022/02/08 15:46:49;;;;;;;1.75;1.70;;;4.70;69.20;;;;;;5043524;28;20035;-60
2022/02/08 15:49:15;;;;;;;1.88;1.80;;;4.70;69.20;;;;;;5040151;28;20057;-60
2022/02/08 15:51:47;;;;;;;2.08;1.80;;;4.70;69.30;;;;;;5060037;28;20044;-60
2022/02/08 15:54:37;;;;;;;2.15;1.70;;;4.70;69.20;;;;;;5053069;28;20034;-60
2022/02/08 16:07:53;;;;;;;2.00;1.90;;;4.70;69.10;;;;;;5058737;28;21081;-60
2022/02/08 16:10:28;;;;;;;3.05;1.92;;;4.70;69.10;;;;;;5068479;28;20508;-60
2022/02/08 16:58:26;;;;;;;3.25;2.20;;;4.70;67.30;;;;;;5068727;28;19909;-62
2022/02/08 17:00:57;;;;;;;1.77;1.67;;;4.80;67.80;;;;;;5076425;28;20040;-62
2022/02/08 17:03:27;;;;;;;2.67;1.98;;;4.70;67.70;;;;;;5073933;28;20036;-62
2022/02/08 17:05:53;;;;;;;2.30;2.10;;;4.70;68.10;;;;;;5083259;28;20025;-62
2022/02/08 17:08:19;;;;;;;3.05;2.10;;;4.70;68.20;;;;;;5065370;28;20077;-62
2022/02/08 17:10:49;;;;;;;2.10;1.90;;;4.70;68.40;;;;;;5069235;28;20054;-62
2022/02/08 17:13:37;;;;;;;2.85;1.90;;;4.70;68.30;;;;;;5070745;28;20021;-62
2022/02/08 17:35:49;;;;;;;1.95;1.85;;;4.80;67.80;;;;;;5065352;28;20071;-62
2022/02/08 17:46:01;;;;;;;2.50;2.30;;;4.80;67.80;;;;;;5072410;28;20028;-62
2022/02/08 17:48:30;;;;;;;2.03;1.92;;;4.80;67.90;;;;;;5069947;28;20028;-62
2022/02/08 17:50:56;;;;;;;2.47;2.10;;;4.80;67.80;;;;;;5075776;28;20040;-62
2022/02/08 17:53:23;;;;;;;3.28;2.50;;;4.80;67.80;;;;;;5038316;28;20025;-62
2022/02/08 17:55:49;;;;;;;2.53;2.30;;;4.80;67.80;;;;;;5070234;28;20029;-63
2022/02/08 17:58:15;;;;;;;3.15;2.33;;;4.80;67.80;;;;;;5075585;28;20406;-63
2022/02/08 18:00:41;;;;;;;2.50;2.30;;;4.90;67.80;;;;;;5084489;28;20454;-63
2022/02/08 18:03:07;;;;;;;3.20;2.30;;;4.80;67.70;;;;;;5071954;28;20033;-62
2022/02/08 18:05:34;;;;;;;3.53;2.40;;;4.90;67.50;;;;;;5072124;28;20025;-62
2022/02/08 18:08:00;;;;;;;3.10;2.40;;;4.90;67.50;;;;;;5085616;28;20039;-64
2022/02/08 18:10:26;;;;;;;2.50;2.30;;;4.90;67.40;;;;;;5058405;28;20475;-62
2022/02/08 18:12:57;;;;;;;3.63;3.15;;;4.90;67.40;;;;;;5072516;28;20021;-64
2022/02/08 18:15:27;;;;;;;3.65;2.47;;;4.90;67.30;;;;;;5078164;28;20028;-64
2022/02/08 18:17:57;;;;;;;3.05;2.65;;;4.90;67.30;;;;;;5065818;28;20036;-64
2022/02/08 18:20:43;;;;;;;2.80;2.40;;;4.90;67.10;;;;;;5056784;28;20590;-64
2022/02/08 18:23:35;;;;;;;3.88;2.30;;;4.90;66.80;;;;;;5071869;28;20052;-64
2022/02/08 19:09:44;;;;;;;5.50;3.75;;;4.90;66.20;;;;;;5072777;28;20035;-63
2022/02/08 19:12:33;;;;;;;4.43;3.75;;;4.90;65.90;;;;;;5081409;28;20508;-61
2022/02/08 19:20:19;;;;;;;6.93;4.18;;;4.90;65.50;;;;;;5070275;28;20541;-61
2022/02/08 19:22:45;;;;;;;5.65;4.07;;;4.90;65.30;;;;;;5067196;28;20111;-61
2022/02/08 19:25:11;;;;;;;6.88;4.43;;;4.90;65.00;;;;;;5071106;28;20112;-61
2022/02/08 19:27:40;;;;;;;4.05;3.25;;;4.90;65.00;;;;;;5084966;28;20036;-61
2022/02/08 19:30:06;;;;;;;4.35;3.22;;;4.90;64.90;;;;;;5069619;28;20055;-61
2022/02/08 19:32:32;;;;;;;5.43;3.65;;;4.80;64.90;;;;;;5074819;28;20095;-63
2022/02/08 19:34:58;;;;;;;3.45;2.88;;;4.90;65.00;;;;;;5075610;28;20131;-61
2022/02/08 19:37:24;;;;;;;3.28;2.97;;;4.80;64.80;;;;;;5087484;28;20488;-61
2022/02/08 19:39:50;;;;;;;5.60;3.33;;;4.80;65.00;;;;;;5074452;28;20115;-61
2022/02/08 19:42:16;;;;;;;3.75;3.40;;;4.80;64.90;;;;;;5086138;28;20024;-61
2022/02/08 19:44:42;;;;;;;4.20;3.33;;;4.80;64.90;;;;;;5076398;28;20130;-61
2022/02/08 19:47:08;;;;;;;4.15;3.17;;;4.80;64.70;;;;;;5076437;28;20112;-61
2022/02/08 19:49:34;;;;;;;4.00;3.17;;;4.90;64.70;;;;;;5070301;28;20043;-61
2022/02/08 19:52:00;;;;;;;3.95;3.22;;;4.90;64.70;;;;;;5068063;28;20025;-61
2022/02/08 19:54:30;;;;;;;4.90;3.35;;;4.90;64.70;;;;;;5069222;28;20036;-61
2022/02/08 19:59:38;;;;;;;6.93;3.45;;;4.90;64.60;;;;;;5076084;28;20056;-61
2022/02/08 20:02:09;;;;;;;3.42;2.90;;;4.90;64.40;;;;;;5067880;28;20021;-61
2022/02/08 20:04:38;;;;;;;3.47;3.17;;;4.90;64.50;;;;;;5075943;28;20024;-61
2022/02/08 20:07:05;;;;;;;2.85;2.55;;;4.90;64.50;;;;;;5075975;28;20051;-61
2022/02/08 20:09:31;;;;;;;2.70;2.50;;;4.80;64.50;;;;;;5075557;28;20100;-61
2022/02/08 20:11:57;;;;;;;3.17;2.72;;;4.80;64.50;;;;;;5075388;28;20029;-61
2022/02/08 20:14:24;;;;;;;4.43;2.90;;;4.80;64.80;;;;;;5079138;28;20095;-61
2022/02/08 20:16:50;;;;;;;4.28;2.80;;;4.90;64.80;;;;;;5087169;28;20028;-61
2022/02/08 20:19:19;;;;;;;4.35;2.90;;;4.90;64.70;;;;;;5064501;28;20028;-61
2022/02/08 20:21:46;;;;;;;3.47;2.78;;;4.90;64.70;;;;;;5062479;28;20035;-62
2022/02/08 20:24:15;;;;;;;5.05;3.17;;;4.90;64.50;;;;;;5079886;28;20024;-62
2022/02/08 20:29:19;;;;;;;6.93;4.43;;;5.00;64.10;;;;;;5075303;28;20082;-62
2022/02/08 20:31:47;;;;;;;6.80;5.22;;;5.00;63.90;;;;;;5063296;28;20028;-61
2022/02/08 20:34:16;;;;;;;7.47;4.97;;;5.00;63.90;;;;;;5066361;28;20048;-62
2022/02/08 20:36:43;;;;;;;9.07;5.45;;;4.90;63.80;;;;;;5075301;28;20013;-62
2022/02/08 20:39:09;;;;;;;8.25;5.07;;;4.90;63.70;;;;;;5056901;28;20100;-62
2022/02/08 20:41:35;;;;;;;9.93;5.85;;;4.90;63.80;;;;;;5066153;28;20151;-62
2022/02/08 20:44:02;;;;;;;8.27;5.82;;;4.90;63.80;;;;;;5074481;28;20532;-62
2022/02/08 20:46:28;;;;;;;8.45;5.03;;;5.00;63.70;;;;;;5074605;28;20111;-62
2022/02/08 20:48:55;;;;;;;9.38;5.65;;;5.00;63.50;;;;;;5072045;28;20037;-62
2022/02/08 20:51:26;;;;;;;9.95;6.20;;;5.00;63.50;;;;;;5054837;28;20072;-62
2022/02/08 20:53:54;;;;;;;11.23;5.90;;;5.00;63.50;;;;;;5057984;28;20488;-62
2022/02/08 20:56:35;;;;;;;9.95;5.43;;;5.00;63.60;;;;;;5074718;28;20040;-62
2022/02/08 20:59:07;;;;;;;9.57;5.68;;;5.00;63.60;;;;;;5074698;28;20029;-62
2022/02/08 21:01:39;;;;;;;10.15;5.55;;;5.00;63.60;;;;;;5074963;28;20023;-62
2022/02/08 21:04:14;;;;;;;9.68;5.85;;;5.10;63.50;;;;;;5059738;28;20407;-62
2022/02/08 21:06:41;;;;;;;9.15;6.05;;;5.10;63.50;;;;;;5074879;28;20043;-62
2022/02/08 21:09:07;;;;;;;13.48;7.85;;;5.10;63.50;;;;;;5061106;28;20074;-62
2022/02/08 21:11:36;;;;;;;11.48;6.60;;;5.10;63.30;;;;;;5074718;28;20028;-62
2022/02/08 21:14:05;;;;;;;11.80;6.13;;;5.10;63.30;;;;;;5073806;28;20052;-62
2022/02/08 21:16:40;;;;;;;10.35;6.13;;;5.20;63.30;;;;;;5061422;28;20063;-62
2022/02/08 21:19:06;;;;;;;10.82;6.32;;;5.20;63.70;;;;;;5073883;28;20031;-62